sensor_id;sensor_type;location;lat;lon;timestamp;temperature;humidity
23102;DHT22;11720;51.214;22.574;2023-08-17T00:01:34;23.10;99.90
23102;DHT22;11720;51.214;22.574;2023-08-17T00:04:00;23.10;99.90
23102;DHT22;11720;51.214;22.574;2023-08-17T00:06:26;23.10;99.90
23102;DHT22;11720;51.214;22.574;2023-08-17T00:08:51;23.00;99.90
23102;DHT22;11720;51.214;22.574;2023-08-17T00:11:17;23.00;99.90
23102;DHT22;11720;51.214;22.574;2023-08-17T00:13:43;23.00;99.90
23102;DHT22;11720;51.214;22.574;2023-08-17T00:16:09;23.00;99.90
23102;DHT22;11720;51.214;22.574;2023-08-17T00:18:34;22.90;99.90
23102;DHT22;11720;51.214;22.574;2023-08-17T00:21:00;22.90;99.90
23102;DHT22;11720;51.214;22.574;2023-08-17T00:23:25;22.90;99.90
23102;DHT22;11720;51.214;22.574;2023-08-17T00:25:51;22.80;99.90
23102;DHT22;11720;51.214;22.574;2023-08-17T00:28:17;22.70;99.90
23102;DHT22;11720;51.214;22.574;2023-08-17T00:30:42;22.70;99.90
23102;DHT22;11720;51.214;22.574;2023-08-17T00:33:08;22.70;99.90
23102;DHT22;11720;51.214;22.574;2023-08-17T00:35:34;22.70;99.90
23102;DHT22;11720;51.214;22.574;2023-08-17T00:38:00;22.70;99.90
23102;DHT22;11720;51.214;22.574;2023-08-17T00:40:25;22.70;99.90
23102;DHT22;11720;51.214;22.574;2023-08-17T00:42:51;22.70;99.90
23102;DHT22;11720;51.214;22.574;2023-08-17T00:45:18;22.70;99.90
23102;DHT22;11720;51.214;22.574;2023-08-17T00:47:44;22.70;99.90
23102;DHT22;11720;51.214;22.574;2023-08-17T00:50:11;22.70;99.90
23102;DHT22;11720;51.214;22.574;2023-08-17T00:52:38;22.60;99.90
23102;DHT22;11720;51.214;22.574;2023-08-17T00:55:04;22.50;99.90
23102;DHT22;11720;51.214;22.574;2023-08-17T00:57:31;22.50;99.90
23102;DHT22;11720;51.214;22.574;2023-08-17T00:59:58;22.50;99.90
23102;DHT22;11720;51.214;22.574;2023-08-17T01:02:24;22.50;99.90
23102;DHT22;11720;51.214;22.574;2023-08-17T01:04:50;22.50;99.90
23102;DHT22;11720;51.214;22.574;2023-08-17T01:07:15;22.50;99.90
23102;DHT22;11720;51.214;22.574;2023-08-17T01:09:41;22.50;99.90
23102;DHT22;11720;51.214;22.574;2023-08-17T01:12:29;22.50;99.90
23102;DHT22;11720;51.214;22.574;2023-08-17T01:15:21;22.50;99.90
23102;DHT22;11720;51.214;22.574;2023-08-17T01:18:22;22.50;99.90
23102;DHT22;11720;51.214;22.574;2023-08-17T01:20:49;22.40;99.90
23102;DHT22;11720;51.214;22.574;2023-08-17T01:23:15;22.40;99.90
23102;DHT22;11720;51.214;22.574;2023-08-17T01:25:41;22.40;99.90
23102;DHT22;11720;51.214;22.574;2023-08-17T01:28:06;22.40;99.90
23102;DHT22;11720;51.214;22.574;2023-08-17T01:30:57;22.30;99.90
23102;DHT22;11720;51.214;22.574;2023-08-17T01:33:40;22.20;99.90
23102;DHT22;11720;51.214;22.574;2023-08-17T01:36:22;22.20;99.90
23102;DHT22;11720;51.214;22.574;2023-08-17T01:38:51;22.20;99.90
23102;DHT22;11720;51.214;22.574;2023-08-17T01:41:19;22.20;99.90
23102;DHT22;11720;51.214;22.574;2023-08-17T01:43:46;22.20;99.90
23102;DHT22;11720;51.214;22.574;2023-08-17T01:46:16;22.20;99.90
23102;DHT22;11720;51.214;22.574;2023-08-17T01:48:43;22.20;99.90
23102;DHT22;11720;51.214;22.574;2023-08-17T01:51:10;22.20;99.90
23102;DHT22;11720;51.214;22.574;2023-08-17T01:53:36;22.20;99.90
23102;DHT22;11720;51.214;22.574;2023-08-17T01:56:01;22.20;99.90
23102;DHT22;11720;51.214;22.574;2023-08-17T01:58:27;22.20;99.90
23102;DHT22;11720;51.214;22.574;2023-08-17T02:00:52;22.20;99.90
23102;DHT22;11720;51.214;22.574;2023-08-17T02:03:18;22.20;99.90
23102;DHT22;11720;51.214;22.574;2023-08-17T02:05:47;22.10;99.90
23102;DHT22;11720;51.214;22.574;2023-08-17T02:08:13;22.10;99.90
23102;DHT22;11720;51.214;22.574;2023-08-17T02:10:38;22.10;99.90
23102;DHT22;11720;51.214;22.574;2023-08-17T02:13:04;22.00;99.90
23102;DHT22;11720;51.214;22.574;2023-08-17T02:15:30;22.00;99.90
23102;DHT22;11720;51.214;22.574;2023-08-17T02:18:01;22.00;99.90
23102;DHT22;11720;51.214;22.574;2023-08-17T02:20:26;22.00;99.90
23102;DHT22;11720;51.214;22.574;2023-08-17T02:22:52;21.90;99.90
23102;DHT22;11720;51.214;22.574;2023-08-17T02:25:18;21.90;99.90
23102;DHT22;11720;51.214;22.574;2023-08-17T02:27:43;21.90;99.90
23102;DHT22;11720;51.214;22.574;2023-08-17T02:30:09;21.80;99.90
23102;DHT22;11720;51.214;22.574;2023-08-17T02:32:35;21.80;99.90
23102;DHT22;11720;51.214;22.574;2023-08-17T02:35:01;21.80;99.90
23102;DHT22;11720;51.214;22.574;2023-08-17T02:37:27;21.80;99.90
23102;DHT22;11720;51.214;22.574;2023-08-17T02:39:52;21.80;99.90
23102;DHT22;11720;51.214;22.574;2023-08-17T02:42:18;21.80;99.90
23102;DHT22;11720;51.214;22.574;2023-08-17T02:44:44;21.80;99.90
23102;DHT22;11720;51.214;22.574;2023-08-17T02:47:10;21.70;99.90
23102;DHT22;11720;51.214;22.574;2023-08-17T02:49:35;21.80;99.90
23102;DHT22;11720;51.214;22.574;2023-08-17T02:52:01;21.70;99.90
23102;DHT22;11720;51.214;22.574;2023-08-17T02:54:26;21.70;99.90
23102;DHT22;11720;51.214;22.574;2023-08-17T02:56:52;21.70;99.90
23102;DHT22;11720;51.214;22.574;2023-08-17T02:59:18;21.70;99.90
23102;DHT22;11720;51.214;22.574;2023-08-17T03:01:45;21.70;99.90
23102;DHT22;11720;51.214;22.574;2023-08-17T03:04:10;21.70;99.90
23102;DHT22;11720;51.214;22.574;2023-08-17T03:06:36;21.70;99.90
23102;DHT22;11720;51.214;22.574;2023-08-17T03:09:02;21.80;99.90
23102;DHT22;11720;51.214;22.574;2023-08-17T03:11:27;21.70;99.90
23102;DHT22;11720;51.214;22.574;2023-08-17T03:13:53;21.70;99.90
23102;DHT22;11720;51.214;22.574;2023-08-17T03:16:25;21.70;99.90
23102;DHT22;11720;51.214;22.574;2023-08-17T03:18:51;21.70;99.90
23102;DHT22;11720;51.214;22.574;2023-08-17T03:21:16;21.60;99.90
23102;DHT22;11720;51.214;22.574;2023-08-17T03:23:44;21.70;99.90
23102;DHT22;11720;51.214;22.574;2023-08-17T03:26:09;21.70;99.90
23102;DHT22;11720;51.214;22.574;2023-08-17T03:28:35;21.70;99.90
23102;DHT22;11720;51.214;22.574;2023-08-17T03:31:02;21.70;99.90
23102;DHT22;11720;51.214;22.574;2023-08-17T03:33:28;21.80;99.90
23102;DHT22;11720;51.214;22.574;2023-08-17T03:35:54;21.70;99.90
23102;DHT22;11720;51.214;22.574;2023-08-17T03:38:20;21.80;99.90
23102;DHT22;11720;51.214;22.574;2023-08-17T03:40:49;21.80;99.90
23102;DHT22;11720;51.214;22.574;2023-08-17T03:43:18;22.10;99.90
23102;DHT22;11720;51.214;22.574;2023-08-17T03:45:43;21.70;99.90
23102;DHT22;11720;51.214;22.574;2023-08-17T03:48:10;21.70;99.90
23102;DHT22;11720;51.214;22.574;2023-08-17T03:53:01;21.80;99.90
23102;DHT22;11720;51.214;22.574;2023-08-17T03:55:27;22.00;99.90
23102;DHT22;11720;51.214;22.574;2023-08-17T03:57:53;21.80;99.90
23102;DHT22;11720;51.214;22.574;2023-08-17T04:00:19;22.00;99.90
23102;DHT22;11720;51.214;22.574;2023-08-17T04:02:44;22.00;99.90
23102;DHT22;11720;51.214;22.574;2023-08-17T04:05:10;21.80;99.90
23102;DHT22;11720;51.214;22.574;2023-08-17T04:07:36;21.80;99.90
23102;DHT22;11720;51.214;22.574;2023-08-17T04:10:03;22.00;99.90
23102;DHT22;11720;51.214;22.574;2023-08-17T04:12:32;21.80;99.90
23102;DHT22;11720;51.214;22.574;2023-08-17T04:17:24;22.00;99.90
23102;DHT22;11720;51.214;22.574;2023-08-17T04:22:16;22.10;99.90
23102;DHT22;11720;51.214;22.574;2023-08-17T04:24:42;22.10;99.90
23102;DHT22;11720;51.214;22.574;2023-08-17T04:27:08;22.30;99.90
23102;DHT22;11720;51.214;22.574;2023-08-17T04:29:34;22.10;99.90
23102;DHT22;11720;51.214;22.574;2023-08-17T04:31:59;22.10;99.90
23102;DHT22;11720;51.214;22.574;2023-08-17T04:34:25;22.10;99.90
23102;DHT22;11720;51.214;22.574;2023-08-17T04:39:17;22.20;99.90
23102;DHT22;11720;51.214;22.574;2023-08-17T04:41:43;22.10;99.90
23102;DHT22;11720;51.214;22.574;2023-08-17T04:44:09;22.10;99.90
23102;DHT22;11720;51.214;22.574;2023-08-17T04:46:35;22.20;99.90
23102;DHT22;11720;51.214;22.574;2023-08-17T04:51:27;22.30;99.90
23102;DHT22;11720;51.214;22.574;2023-08-17T04:53:53;22.50;99.90
23102;DHT22;11720;51.214;22.574;2023-08-17T04:56:20;22.60;99.90
23102;DHT22;11720;51.214;22.574;2023-08-17T04:58:46;20.50;99.90
23102;DHT22;11720;51.214;22.574;2023-08-17T05:01:12;22.40;99.90
23102;DHT22;11720;51.214;22.574;2023-08-17T05:03:38;22.40;99.90
23102;DHT22;11720;51.214;22.574;2023-08-17T05:06:04;22.50;99.90
23102;DHT22;11720;51.214;22.574;2023-08-17T05:08:30;23.00;99.90
23102;DHT22;11720;51.214;22.574;2023-08-17T05:10:56;22.60;99.90
23102;DHT22;11720;51.214;22.574;2023-08-17T05:13:21;22.70;99.90
23102;DHT22;11720;51.214;22.574;2023-08-17T05:15:47;22.60;99.90
23102;DHT22;11720;51.214;22.574;2023-08-17T05:18:13;22.70;99.90
23102;DHT22;11720;51.214;22.574;2023-08-17T05:20:38;22.70;99.90
23102;DHT22;11720;51.214;22.574;2023-08-17T05:23:04;22.70;99.90
23102;DHT22;11720;51.214;22.574;2023-08-17T05:25:30;22.70;99.90
23102;DHT22;11720;51.214;22.574;2023-08-17T05:27:56;22.80;99.90
23102;DHT22;11720;51.214;22.574;2023-08-17T05:30:21;22.80;99.90
23102;DHT22;11720;51.214;22.574;2023-08-17T05:32:47;22.90;99.90
23102;DHT22;11720;51.214;22.574;2023-08-17T05:35:13;22.90;99.90
23102;DHT22;11720;51.214;22.574;2023-08-17T05:37:38;22.90;99.90
23102;DHT22;11720;51.214;22.574;2023-08-17T05:40:04;22.90;99.90
23102;DHT22;11720;51.214;22.574;2023-08-17T05:42:31;22.90;99.90
23102;DHT22;11720;51.214;22.574;2023-08-17T05:44:56;22.90;99.90
23102;DHT22;11720;51.214;22.574;2023-08-17T05:47:22;23.00;99.90
23102;DHT22;11720;51.214;22.574;2023-08-17T05:49:48;23.00;99.90
23102;DHT22;11720;51.214;22.574;2023-08-17T05:52:13;23.10;99.90
23102;DHT22;11720;51.214;22.574;2023-08-17T05:54:39;23.10;99.90
23102;DHT22;11720;51.214;22.574;2023-08-17T05:57:05;23.10;99.90
23102;DHT22;11720;51.214;22.574;2023-08-17T05:59:31;23.20;99.90
23102;DHT22;11720;51.214;22.574;2023-08-17T06:01:56;23.20;99.90
23102;DHT22;11720;51.214;22.574;2023-08-17T06:04:22;23.20;99.90
23102;DHT22;11720;51.214;22.574;2023-08-17T06:06:48;23.30;99.90
23102;DHT22;11720;51.214;22.574;2023-08-17T06:09:13;23.30;99.90
23102;DHT22;11720;51.214;22.574;2023-08-17T06:11:40;23.40;99.90
23102;DHT22;11720;51.214;22.574;2023-08-17T06:14:06;23.40;99.90
23102;DHT22;11720;51.214;22.574;2023-08-17T06:20:09;23.50;99.90
23102;DHT22;11720;51.214;22.574;2023-08-17T06:22:35;23.50;99.90
23102;DHT22;11720;51.214;22.574;2023-08-17T06:25:01;23.60;99.90
23102;DHT22;11720;51.214;22.574;2023-08-17T06:27:27;23.60;99.90
23102;DHT22;11720;51.214;22.574;2023-08-17T06:29:52;23.70;99.90
23102;DHT22;11720;51.214;22.574;2023-08-17T06:32:18;23.70;99.90
23102;DHT22;11720;51.214;22.574;2023-08-17T06:34:44;23.80;99.90
23102;DHT22;11720;51.214;22.574;2023-08-17T06:37:09;23.80;99.90
23102;DHT22;11720;51.214;22.574;2023-08-17T06:39:36;23.80;99.90
23102;DHT22;11720;51.214;22.574;2023-08-17T06:42:01;23.90;99.90
23102;DHT22;11720;51.214;22.574;2023-08-17T06:44:27;23.90;99.90
23102;DHT22;11720;51.214;22.574;2023-08-17T06:46:54;24.00;99.90
23102;DHT22;11720;51.214;22.574;2023-08-17T06:49:20;24.00;99.90
23102;DHT22;11720;51.214;22.574;2023-08-17T06:51:45;24.10;99.90
23102;DHT22;11720;51.214;22.574;2023-08-17T06:54:11;24.20;99.90
23102;DHT22;11720;51.214;22.574;2023-08-17T06:56:37;24.20;99.90
23102;DHT22;11720;51.214;22.574;2023-08-17T06:59:03;24.40;99.90
23102;DHT22;11720;51.214;22.574;2023-08-17T07:01:28;24.40;99.90
23102;DHT22;11720;51.214;22.574;2023-08-17T07:03:54;24.50;99.90
23102;DHT22;11720;51.214;22.574;2023-08-17T07:06:21;24.70;99.90
23102;DHT22;11720;51.214;22.574;2023-08-17T07:08:46;24.70;99.90
23102;DHT22;11720;51.214;22.574;2023-08-17T07:11:13;24.90;99.90
23102;DHT22;11720;51.214;22.574;2023-08-17T07:13:38;25.10;99.90
23102;DHT22;11720;51.214;22.574;2023-08-17T07:16:04;25.30;99.90
23102;DHT22;11720;51.214;22.574;2023-08-17T07:18:30;25.50;99.90
23102;DHT22;11720;51.214;22.574;2023-08-17T07:20:55;25.70;99.90
23102;DHT22;11720;51.214;22.574;2023-08-17T07:23:21;25.90;99.90
23102;DHT22;11720;51.214;22.574;2023-08-17T07:25:47;26.10;99.90
23102;DHT22;11720;51.214;22.574;2023-08-17T07:28:14;26.30;99.90
23102;DHT22;11720;51.214;22.574;2023-08-17T07:30:41;26.60;99.90
23102;DHT22;11720;51.214;22.574;2023-08-17T07:33:07;26.60;99.90
23102;DHT22;11720;51.214;22.574;2023-08-17T07:35:33;26.70;99.90
23102;DHT22;11720;51.214;22.574;2023-08-17T07:37:59;26.90;99.90
23102;DHT22;11720;51.214;22.574;2023-08-17T07:40:25;27.10;99.90
23102;DHT22;11720;51.214;22.574;2023-08-17T07:42:50;27.20;99.90
23102;DHT22;11720;51.214;22.574;2023-08-17T07:45:16;27.30;99.90
23102;DHT22;11720;51.214;22.574;2023-08-17T07:47:42;27.40;99.90
23102;DHT22;11720;51.214;22.574;2023-08-17T07:50:08;27.60;99.90
23102;DHT22;11720;51.214;22.574;2023-08-17T07:52:34;27.70;99.90
23102;DHT22;11720;51.214;22.574;2023-08-17T07:54:59;27.70;99.90
23102;DHT22;11720;51.214;22.574;2023-08-17T07:57:25;27.80;99.90
23102;DHT22;11720;51.214;22.574;2023-08-17T07:59:51;27.90;99.90
23102;DHT22;11720;51.214;22.574;2023-08-17T08:02:19;28.00;99.90
23102;DHT22;11720;51.214;22.574;2023-08-17T08:04:45;28.10;99.90
23102;DHT22;11720;51.214;22.574;2023-08-17T08:07:10;28.20;99.90
23102;DHT22;11720;51.214;22.574;2023-08-17T08:09:36;28.20;99.90
23102;DHT22;11720;51.214;22.574;2023-08-17T08:12:02;28.20;99.20
23102;DHT22;11720;51.214;22.574;2023-08-17T08:14:28;28.20;99.10
23102;DHT22;11720;51.214;22.574;2023-08-17T08:16:54;28.20;99.00
23102;DHT22;11720;51.214;22.574;2023-08-17T08:19:20;28.20;98.60
23102;DHT22;11720;51.214;22.574;2023-08-17T08:21:46;28.30;98.40
23102;DHT22;11720;51.214;22.574;2023-08-17T08:24:12;28.30;98.80
23102;DHT22;11720;51.214;22.574;2023-08-17T08:26:37;28.20;95.40
23102;DHT22;11720;51.214;22.574;2023-08-17T08:29:03;28.30;95.40
23102;DHT22;11720;51.214;22.574;2023-08-17T08:31:29;28.30;95.50
23102;DHT22;11720;51.214;22.574;2023-08-17T08:33:55;28.20;94.10
23102;DHT22;11720;51.214;22.574;2023-08-17T08:36:21;28.30;94.30
23102;DHT22;11720;51.214;22.574;2023-08-17T08:38:46;28.30;93.80
23102;DHT22;11720;51.214;22.574;2023-08-17T08:41:12;28.30;94.00
23102;DHT22;11720;51.214;22.574;2023-08-17T08:43:38;28.40;94.20
23102;DHT22;11720;51.214;22.574;2023-08-17T08:46:04;28.30;93.70
23102;DHT22;11720;51.214;22.574;2023-08-17T08:48:32;28.40;94.30
23102;DHT22;11720;51.214;22.574;2023-08-17T08:51:00;28.40;94.20
23102;DHT22;11720;51.214;22.574;2023-08-17T08:53:37;28.40;95.20
23102;DHT22;11720;51.214;22.574;2023-08-17T08:56:04;28.40;94.50
23102;DHT22;11720;51.214;22.574;2023-08-17T08:58:31;28.40;95.60
23102;DHT22;11720;51.214;22.574;2023-08-17T09:00:58;28.40;95.40
23102;DHT22;11720;51.214;22.574;2023-08-17T09:03:26;28.60;95.50
23102;DHT22;11720;51.214;22.574;2023-08-17T09:05:52;28.80;94.80
23102;DHT22;11720;51.214;22.574;2023-08-17T09:08:24;29.10;94.80
23102;DHT22;11720;51.214;22.574;2023-08-17T09:10:50;29.20;94.40
23102;DHT22;11720;51.214;22.574;2023-08-17T09:13:16;29.20;93.20
23102;DHT22;11720;51.214;22.574;2023-08-17T09:15:42;29.20;93.30
23102;DHT22;11720;51.214;22.574;2023-08-17T09:18:08;29.20;90.60
23102;DHT22;11720;51.214;22.574;2023-08-17T09:20:44;29.30;91.00
23102;DHT22;11720;51.214;22.574;2023-08-17T09:23:18;29.40;90.70
23102;DHT22;11720;51.214;22.574;2023-08-17T09:25:46;29.40;90.10
23102;DHT22;11720;51.214;22.574;2023-08-17T09:28:13;29.50;85.20
23102;DHT22;11720;51.214;22.574;2023-08-17T09:31:09;29.60;84.70
23102;DHT22;11720;51.214;22.574;2023-08-17T09:33:35;29.70;83.20
23102;DHT22;11720;51.214;22.574;2023-08-17T09:36:01;29.70;83.70
23102;DHT22;11720;51.214;22.574;2023-08-17T09:38:27;29.80;83.60
23102;DHT22;11720;51.214;22.574;2023-08-17T09:40:53;29.90;81.50
23102;DHT22;11720;51.214;22.574;2023-08-17T09:43:19;30.10;81.10
23102;DHT22;11720;51.214;22.574;2023-08-17T09:45:49;30.20;82.90
23102;DHT22;11720;51.214;22.574;2023-08-17T09:48:18;30.20;81.80
23102;DHT22;11720;51.214;22.574;2023-08-17T09:50:47;30.40;81.70
23102;DHT22;11720;51.214;22.574;2023-08-17T09:53:15;30.50;83.40
23102;DHT22;11720;51.214;22.574;2023-08-17T09:55:42;30.60;84.20
23102;DHT22;11720;51.214;22.574;2023-08-17T09:58:09;30.70;81.40
23102;DHT22;11720;51.214;22.574;2023-08-17T10:00:36;30.70;79.70
23102;DHT22;11720;51.214;22.574;2023-08-17T10:03:03;30.80;78.20
23102;DHT22;11720;51.214;22.574;2023-08-17T10:05:32;30.90;76.60
23102;DHT22;11720;51.214;22.574;2023-08-17T10:08:00;31.00;76.60
23102;DHT22;11720;51.214;22.574;2023-08-17T10:10:29;31.20;75.20
23102;DHT22;11720;51.214;22.574;2023-08-17T10:13:21;31.20;71.00
23102;DHT22;11720;51.214;22.574;2023-08-17T10:16:16;31.20;68.90
23102;DHT22;11720;51.214;22.574;2023-08-17T10:21:50;31.60;69.60
23102;DHT22;11720;51.214;22.574;2023-08-17T10:24:18;31.70;64.00
23102;DHT22;11720;51.214;22.574;2023-08-17T10:26:45;31.80;64.90
23102;DHT22;11720;51.214;22.574;2023-08-17T10:29:11;31.90;62.00
23102;DHT22;11720;51.214;22.574;2023-08-17T10:31:37;31.90;61.60
23102;DHT22;11720;51.214;22.574;2023-08-17T10:34:04;31.80;63.00
23102;DHT22;11720;51.214;22.574;2023-08-17T10:36:33;31.60;62.50
23102;DHT22;11720;51.214;22.574;2023-08-17T10:41:49;31.40;61.10
23102;DHT22;11720;51.214;22.574;2023-08-17T10:44:17;31.30;60.20
23102;DHT22;11720;51.214;22.574;2023-08-17T10:46:42;31.20;62.00
23102;DHT22;11720;51.214;22.574;2023-08-17T10:49:31;31.00;62.00
23102;DHT22;11720;51.214;22.574;2023-08-17T10:52:04;30.90;62.10
23102;DHT22;11720;51.214;22.574;2023-08-17T10:54:40;30.80;62.60
23102;DHT22;11720;51.214;22.574;2023-08-17T11:00:18;31.30;62.80
23102;DHT22;11720;51.214;22.574;2023-08-17T11:03:00;31.70;61.00
23102;DHT22;11720;51.214;22.574;2023-08-17T11:08:10;32.20;64.40
23102;DHT22;11720;51.214;22.574;2023-08-17T11:10:36;32.20;60.70
23102;DHT22;11720;51.214;22.574;2023-08-17T11:13:03;32.10;60.70
23102;DHT22;11720;51.214;22.574;2023-08-17T11:15:40;31.80;64.80
23102;DHT22;11720;51.214;22.574;2023-08-17T11:18:11;31.90;61.00
23102;DHT22;11720;51.214;22.574;2023-08-17T11:20:39;31.90;61.30
23102;DHT22;11720;51.214;22.574;2023-08-17T11:23:06;31.90;68.30
23102;DHT22;11720;51.214;22.574;2023-08-17T11:25:32;31.90;62.50
23102;DHT22;11720;51.214;22.574;2023-08-17T11:28:01;32.00;61.80
23102;DHT22;11720;51.214;22.574;2023-08-17T11:30:28;32.00;61.40
23102;DHT22;11720;51.214;22.574;2023-08-17T11:32:54;32.00;61.40
23102;DHT22;11720;51.214;22.574;2023-08-17T11:35:21;32.00;64.80
23102;DHT22;11720;51.214;22.574;2023-08-17T11:37:47;32.00;61.40
23102;DHT22;11720;51.214;22.574;2023-08-17T11:40:16;32.00;62.50
23102;DHT22;11720;51.214;22.574;2023-08-17T11:42:43;32.00;63.70
23102;DHT22;11720;51.214;22.574;2023-08-17T11:45:09;32.00;59.40
23102;DHT22;11720;51.214;22.574;2023-08-17T11:47:39;32.10;60.70
23102;DHT22;11720;51.214;22.574;2023-08-17T11:50:08;32.10;59.20
23102;DHT22;11720;51.214;22.574;2023-08-17T11:52:34;32.00;59.30
23102;DHT22;11720;51.214;22.574;2023-08-17T11:55:05;32.10;63.50
23102;DHT22;11720;51.214;22.574;2023-08-17T11:57:35;32.00;59.90
23102;DHT22;11720;51.214;22.574;2023-08-17T12:00:02;32.00;60.70
23102;DHT22;11720;51.214;22.574;2023-08-17T12:02:30;32.10;58.70
23102;DHT22;11720;51.214;22.574;2023-08-17T12:04:56;32.40;59.40
23102;DHT22;11720;51.214;22.574;2023-08-17T12:07:24;32.50;59.80
23102;DHT22;11720;51.214;22.574;2023-08-17T12:09:50;32.50;60.00
23102;DHT22;11720;51.214;22.574;2023-08-17T12:12:21;32.70;62.80
23102;DHT22;11720;51.214;22.574;2023-08-17T12:14:48;33.00;59.30
23102;DHT22;11720;51.214;22.574;2023-08-17T12:17:18;32.70;58.40
23102;DHT22;11720;51.214;22.574;2023-08-17T12:19:49;32.90;57.40
23102;DHT22;11720;51.214;22.574;2023-08-17T12:22:16;33.00;57.60
23102;DHT22;11720;51.214;22.574;2023-08-17T12:24:42;32.80;60.10
23102;DHT22;11720;51.214;22.574;2023-08-17T12:27:09;32.90;61.20
23102;DHT22;11720;51.214;22.574;2023-08-17T12:29:51;33.20;60.70
23102;DHT22;11720;51.214;22.574;2023-08-17T12:32:19;33.40;58.60
23102;DHT22;11720;51.214;22.574;2023-08-17T12:34:45;33.30;58.50
23102;DHT22;11720;51.214;22.574;2023-08-17T12:37:12;33.30;58.30
23102;DHT22;11720;51.214;22.574;2023-08-17T12:39:38;33.20;58.50
23102;DHT22;11720;51.214;22.574;2023-08-17T12:42:04;33.30;57.80
23102;DHT22;11720;51.214;22.574;2023-08-17T12:44:30;33.00;58.70
23102;DHT22;11720;51.214;22.574;2023-08-17T12:46:56;32.90;58.90
23102;DHT22;11720;51.214;22.574;2023-08-17T12:49:25;32.70;59.50
23102;DHT22;11720;51.214;22.574;2023-08-17T12:51:51;32.50;58.80
23102;DHT22;11720;51.214;22.574;2023-08-17T12:54:17;32.50;60.80
23102;DHT22;11720;51.214;22.574;2023-08-17T12:56:44;32.40;60.30
23102;DHT22;11720;51.214;22.574;2023-08-17T12:59:10;32.30;59.30
23102;DHT22;11720;51.214;22.574;2023-08-17T13:01:36;32.20;60.90
23102;DHT22;11720;51.214;22.574;2023-08-17T13:04:01;32.20;59.80
23102;DHT22;11720;51.214;22.574;2023-08-17T13:06:27;32.20;61.00
23102;DHT22;11720;51.214;22.574;2023-08-17T13:08:53;32.40;60.10
23102;DHT22;11720;51.214;22.574;2023-08-17T13:11:19;32.70;59.20
23102;DHT22;11720;51.214;22.574;2023-08-17T13:13:44;32.70;57.80
23102;DHT22;11720;51.214;22.574;2023-08-17T13:16:10;32.60;61.30
23102;DHT22;11720;51.214;22.574;2023-08-17T13:18:39;32.40;58.50
23102;DHT22;11720;51.214;22.574;2023-08-17T13:21:04;32.20;59.20
23102;DHT22;11720;51.214;22.574;2023-08-17T13:23:30;32.00;62.00
23102;DHT22;11720;51.214;22.574;2023-08-17T13:25:56;31.80;60.00
23102;DHT22;11720;51.214;22.574;2023-08-17T13:28:22;31.70;62.10
23102;DHT22;11720;51.214;22.574;2023-08-17T13:30:47;31.50;64.50
23102;DHT22;11720;51.214;22.574;2023-08-17T13:33:13;31.50;63.20
23102;DHT22;11720;51.214;22.574;2023-08-17T13:35:39;31.70;68.80
23102;DHT22;11720;51.214;22.574;2023-08-17T13:38:05;32.20;68.30
23102;DHT22;11720;51.214;22.574;2023-08-17T13:40:31;32.60;66.00
23102;DHT22;11720;51.214;22.574;2023-08-17T13:42:57;32.80;60.80
23102;DHT22;11720;51.214;22.574;2023-08-17T13:45:26;32.90;59.40
23102;DHT22;11720;51.214;22.574;2023-08-17T13:47:52;32.80;57.80
23102;DHT22;11720;51.214;22.574;2023-08-17T13:50:18;32.60;62.00
23102;DHT22;11720;51.214;22.574;2023-08-17T13:52:44;32.30;63.90
23102;DHT22;11720;51.214;22.574;2023-08-17T13:55:10;32.00;65.70
23102;DHT22;11720;51.214;22.574;2023-08-17T13:57:36;32.00;64.90
23102;DHT22;11720;51.214;22.574;2023-08-17T14:00:02;32.20;69.20
23102;DHT22;11720;51.214;22.574;2023-08-17T14:02:29;32.20;67.20
23102;DHT22;11720;51.214;22.574;2023-08-17T14:04:55;32.20;66.30
23102;DHT22;11720;51.214;22.574;2023-08-17T14:07:20;32.20;67.20
23102;DHT22;11720;51.214;22.574;2023-08-17T14:09:46;32.50;63.70
23102;DHT22;11720;51.214;22.574;2023-08-17T14:12:12;32.70;61.20
23102;DHT22;11720;51.214;22.574;2023-08-17T14:14:37;32.90;61.30
23102;DHT22;11720;51.214;22.574;2023-08-17T14:17:03;33.10;58.20
23102;DHT22;11720;51.214;22.574;2023-08-17T14:19:28;33.50;57.00
23102;DHT22;11720;51.214;22.574;2023-08-17T14:21:54;33.70;56.50
23102;DHT22;11720;51.214;22.574;2023-08-17T14:24:20;33.90;57.40
23102;DHT22;11720;51.214;22.574;2023-08-17T14:26:46;33.70;57.40
23102;DHT22;11720;51.214;22.574;2023-08-17T14:29:11;33.50;54.90
23102;DHT22;11720;51.214;22.574;2023-08-17T14:31:37;33.50;55.00
23102;DHT22;11720;51.214;22.574;2023-08-17T14:34:03;33.30;55.20
23102;DHT22;11720;51.214;22.574;2023-08-17T14:36:28;33.10;55.50
23102;DHT22;11720;51.214;22.574;2023-08-17T14:38:54;32.90;55.70
23102;DHT22;11720;51.214;22.574;2023-08-17T14:41:20;32.60;58.20
23102;DHT22;11720;51.214;22.574;2023-08-17T14:43:45;32.50;60.10
23102;DHT22;11720;51.214;22.574;2023-08-17T14:46:11;32.30;61.60
23102;DHT22;11720;51.214;22.574;2023-08-17T14:48:37;32.20;62.40
23102;DHT22;11720;51.214;22.574;2023-08-17T14:51:02;32.10;61.60
23102;DHT22;11720;51.214;22.574;2023-08-17T14:53:28;32.00;64.00
23102;DHT22;11720;51.214;22.574;2023-08-17T14:55:54;31.90;61.50
23102;DHT22;11720;51.214;22.574;2023-08-17T14:58:21;31.80;60.40
23102;DHT22;11720;51.214;22.574;2023-08-17T15:00:46;31.80;62.70
23102;DHT22;11720;51.214;22.574;2023-08-17T15:03:12;31.70;64.10
23102;DHT22;11720;51.214;22.574;2023-08-17T15:05:37;31.30;64.00
23102;DHT22;11720;51.214;22.574;2023-08-17T15:08:04;31.10;68.10
23102;DHT22;11720;51.214;22.574;2023-08-17T15:10:30;30.80;71.80
23102;DHT22;11720;51.214;22.574;2023-08-17T15:12:56;30.40;76.40
23102;DHT22;11720;51.214;22.574;2023-08-17T15:15:22;29.50;84.80
23102;DHT22;11720;51.214;22.574;2023-08-17T15:17:48;28.30;92.20
23102;DHT22;11720;51.214;22.574;2023-08-17T15:20:14;25.80;99.00
23102;DHT22;11720;51.214;22.574;2023-08-17T15:22:39;25.00;98.70
23102;DHT22;11720;51.214;22.574;2023-08-17T15:25:05;24.90;99.90
23102;DHT22;11720;51.214;22.574;2023-08-17T15:27:31;24.30;99.90
23102;DHT22;11720;51.214;22.574;2023-08-17T15:29:57;24.00;99.90
23102;DHT22;11720;51.214;22.574;2023-08-17T15:32:22;23.70;99.90
23102;DHT22;11720;51.214;22.574;2023-08-17T15:34:48;23.60;99.90
23102;DHT22;11720;51.214;22.574;2023-08-17T15:37:13;23.30;99.90
23102;DHT22;11720;51.214;22.574;2023-08-17T15:39:39;23.10;99.90
23102;DHT22;11720;51.214;22.574;2023-08-17T15:42:05;23.10;99.90